createdAt,value
2023-04-15T00:01:19.064Z,97414.67
2023-04-15T00:04:11.090Z,97414.16
2023-04-15T00:07:03.268Z,97418.84
2023-04-15T00:09:46.089Z,97417.38
2023-04-15T00:12:38.064Z,97423.37
2023-04-15T00:15:30.056Z,97424.55
2023-04-15T00:18:22.024Z,97430.10
2023-04-15T00:21:14.175Z,97430.50
2023-04-15T00:24:06.411Z,97428.86
2023-04-15T00:26:58.769Z,97437.61
2023-04-15T00:29:50.768Z,97438.64
2023-04-15T00:32:42.856Z,97432.58
2023-04-15T00:35:36.640Z,97436.41
2023-04-15T00:38:28.713Z,97437.04
2023-04-15T00:41:20.972Z,97452.73
2023-04-15T00:44:13.011Z,97452.73
2023-04-15T00:47:07.182Z,97454.95
2023-04-15T00:49:59.188Z,97463.27
2023-04-15T00:52:51.147Z,97472.55
2023-04-15T00:55:43.528Z,97474.98
2023-04-15T00:58:35.752Z,97479.38
2023-04-15T01:01:29.712Z,97474.55
2023-04-15T01:04:22.408Z,97479.77
2023-04-15T01:07:14.436Z,97483.81
2023-04-15T01:10:08.161Z,97482.46
2023-04-15T01:13:00.337Z,97472.42
2023-04-15T01:15:52.906Z,97471.50
2023-04-15T01:18:45.927Z,97474.61
2023-04-15T01:21:47.005Z,97471.08
2023-04-15T01:24:39.906Z,97475.57
2023-04-15T01:27:21.571Z,97473.82
2023-04-15T01:30:14.118Z,97466.06
2023-04-15T01:33:06.545Z,97468.08
2023-04-15T01:35:58.634Z,97473.26
2023-04-15T01:38:51.695Z,97471.85
2023-04-15T01:41:44.136Z,97473.64
2023-04-15T01:44:36.427Z,97472.27
2023-04-15T01:47:28.581Z,97469.12
2023-04-15T01:50:21.686Z,97479.89
2023-04-15T01:53:09.702Z,97483.65
2023-04-15T01:56:01.650Z,97485.98
2023-04-15T01:58:54.092Z,97488.13
2023-04-15T02:01:46.584Z,97482.00
2023-04-15T02:04:38.591Z,97490.06
2023-04-15T02:07:32.265Z,97499.31
2023-04-15T02:10:24.339Z,97507.59
2023-04-15T02:12:59.303Z,97514.83
2023-04-15T02:15:52.509Z,97512.69
2023-04-15T02:18:44.513Z,97514.06
2023-04-15T02:21:32.503Z,97511.63
2023-04-15T02:24:24.492Z,97512.73
2023-04-15T02:27:19.847Z,97511.02
2023-04-15T02:30:12.535Z,97515.39
2023-04-15T02:33:05.129Z,97515.11
2023-04-15T02:35:57.154Z,97513.20
2023-04-15T02:38:49.180Z,97517.06
2023-04-15T02:41:43.482Z,97518.14
2023-04-15T02:44:35.256Z,97523.34
2023-04-15T02:47:27.377Z,97521.88
2023-04-15T02:50:19.359Z,97525.06
2023-04-15T02:53:11.370Z,97532.56
2023-04-15T02:56:03.500Z,97536.85
2023-04-15T02:58:56.216Z,97536.64
2023-04-15T03:01:48.309Z,97539.21
2023-04-15T03:04:40.483Z,97544.05
2023-04-15T03:07:32.726Z,97550.77
2023-04-15T03:10:24.811Z,97555.21
2023-04-15T03:13:16.962Z,97558.30
2023-04-15T03:16:10.078Z,97561.71
2023-04-15T03:19:02.282Z,97563.71
2023-04-15T03:21:54.504Z,97565.59
2023-04-15T03:24:46.485Z,97568.66
2023-04-15T03:27:39.102Z,97563.39
2023-04-15T03:30:31.085Z,97564.40
2023-04-15T03:33:12.027Z,97568.80
2023-04-15T03:36:04.001Z,97565.94
2023-04-15T03:38:56.135Z,97570.27
2023-04-15T03:41:48.152Z,97573.77
2023-04-15T03:44:40.139Z,97576.44
2023-04-15T03:47:32.135Z,97580.96
2023-04-15T03:50:24.367Z,97587.23
2023-04-15T03:53:16.613Z,97589.15
2023-04-15T03:56:09.132Z,97596.55
2023-04-15T03:59:01.438Z,97596.33
2023-04-15T04:01:53.608Z,97602.00
2023-04-15T04:04:45.765Z,97603.02
2023-04-15T04:07:27.430Z,97607.73
2023-04-15T04:10:19.804Z,97611.37
2023-04-15T04:12:54.627Z,97605.63
2023-04-15T04:15:37.934Z,97605.35
2023-04-15T04:18:30.120Z,97608.60
2023-04-15T04:21:22.431Z,97616.04
2023-04-15T04:24:14.507Z,97620.14
2023-04-15T04:27:06.611Z,97621.18
2023-04-15T04:29:58.605Z,97623.36
2023-04-15T04:32:52.314Z,97628.65
2023-04-15T04:35:44.273Z,97639.35
2023-04-15T04:38:36.274Z,97647.25
2023-04-15T04:41:28.486Z,97652.01
2023-04-15T04:44:20.503Z,97651.38
2023-04-15T04:47:12.439Z,97650.55
2023-04-15T04:50:04.612Z,97656.58
2023-04-15T04:52:56.572Z,97650.97
2023-04-15T04:55:48.574Z,97645.15
2023-04-15T04:58:40.521Z,97645.96
2023-04-15T05:01:32.640Z,97643.69
2023-04-15T05:04:24.728Z,97641.98
2023-04-15T05:07:16.710Z,97644.84
2023-04-15T05:10:10.749Z,97645.36
2023-04-15T05:13:02.766Z,97644.45
2023-04-15T05:15:43.506Z,97643.98
2023-04-15T05:18:35.776Z,97640.04
2023-04-15T05:21:27.888Z,97642.07
2023-04-15T05:24:19.869Z,97641.50
2023-04-15T05:27:11.832Z,97647.98
2023-04-15T05:30:03.887Z,97645.09
2023-04-15T05:32:56.160Z,97650.91
2023-04-15T05:35:48.086Z,97655.14
2023-04-15T05:38:40.123Z,97653.59
2023-04-15T05:41:32.358Z,97655.90
2023-04-15T05:44:24.374Z,97657.84
2023-04-15T05:47:16.614Z,97652.65
2023-04-15T05:50:09.590Z,97658.95
2023-04-15T05:53:02.056Z,97665.75
2023-04-15T05:55:54.070Z,97673.36
2023-04-15T05:58:46.296Z,97676.69
2023-04-15T06:01:38.369Z,97678.28
2023-04-15T06:04:31.064Z,97681.95
2023-04-15T06:07:23.132Z,97683.12
2023-04-15T06:10:15.556Z,97692.29
2023-04-15T06:13:08.009Z,97686.66
2023-04-15T06:16:00.087Z,97688.62
2023-04-15T06:18:40.750Z,97695.77
2023-04-15T06:21:32.899Z,97696.91
2023-04-15T06:24:25.071Z,97694.20
2023-04-15T06:27:17.092Z,97688.24
2023-04-15T06:30:10.971Z,97687.04
2023-04-15T06:33:05.462Z,97693.99
2023-04-15T06:35:57.518Z,97695.30
2023-04-15T06:38:49.730Z,97696.61
2023-04-15T06:41:41.937Z,97694.98
2023-04-15T06:44:34.135Z,97698.46
2023-04-15T06:47:26.189Z,97696.70
2023-04-15T06:50:18.357Z,97702.44
2023-04-15T06:53:10.424Z,97701.23
2023-04-15T06:56:02.416Z,97705.36
2023-04-15T06:58:54.519Z,97707.43
2023-04-15T07:01:46.733Z,97715.30
2023-04-15T07:04:24.413Z,97713.43
2023-04-15T07:07:17.535Z,97714.25
2023-04-15T07:10:11.954Z,97710.71
2023-04-15T07:13:03.983Z,97720.82
2023-04-15T07:15:56.037Z,97723.39
2023-04-15T07:18:48.031Z,97729.27
2023-04-15T07:21:41.790Z,97736.04
2023-04-15T07:24:26.622Z,97733.80
2023-04-15T07:27:18.598Z,97729.73
2023-04-15T07:30:12.779Z,97735.76
2023-04-15T07:33:03.815Z,97733.08
2023-04-15T07:35:55.933Z,97739.38
2023-04-15T07:38:47.883Z,97738.21
2023-04-15T07:41:22.790Z,97738.22
2023-04-15T07:44:14.797Z,97739.13
2023-04-15T07:47:06.819Z,97731.50
2023-04-15T07:49:44.374Z,97728.33
2023-04-15T07:52:39.250Z,97721.44
2023-04-15T07:55:31.210Z,97723.43
2023-04-15T07:58:23.232Z,97718.40
2023-04-15T08:01:15.271Z,97722.23
2023-04-15T08:04:08.290Z,97720.35
2023-04-15T08:07:00.383Z,97721.80
2023-04-15T08:09:52.531Z,97719.30
2023-04-15T08:12:44.555Z,97721.02
2023-04-15T08:15:36.835Z,97725.86
2023-04-15T08:18:28.836Z,97720.73
2023-04-15T08:21:21.763Z,97718.92
2023-04-15T08:24:14.462Z,97717.27
2023-04-15T08:27:07.931Z,97719.62
2023-04-15T08:30:02.083Z,97720.53
2023-04-15T08:32:55.492Z,97721.75
2023-04-15T08:35:47.582Z,97716.70
2023-04-15T08:38:34.637Z,97714.70
2023-04-15T08:41:27.833Z,97719.23
2023-04-15T08:44:21.643Z,97725.04
2023-04-15T08:47:19.289Z,97725.42
2023-04-15T08:50:13.630Z,97728.95
2023-04-15T08:53:06.350Z,97725.02
2023-04-15T08:56:01.532Z,97722.81
2023-04-15T08:58:54.277Z,97725.35
2023-04-15T09:01:46.498Z,97724.81
2023-04-15T09:04:38.608Z,97727.02
2023-04-15T09:07:30.791Z,97731.64
2023-04-15T09:10:23.197Z,97733.38
2023-04-15T09:13:05.149Z,97735.55
2023-04-15T09:15:58.319Z,97736.89
2023-04-15T09:18:50.615Z,97739.39
2023-04-15T09:21:42.672Z,97741.41
2023-04-15T09:24:43.233Z,97737.61
2023-04-15T09:27:38.810Z,97733.69
2023-04-15T09:30:32.076Z,97740.45
2023-04-15T09:33:24.122Z,97741.38
2023-04-15T09:36:16.063Z,97735.46
2023-04-15T09:39:08.119Z,97741.33
2023-04-15T09:42:09.785Z,97739.25
2023-04-15T09:45:12.486Z,97738.38
2023-04-15T09:48:20.940Z,97738.47
2023-04-15T09:51:13.013Z,97730.15
2023-04-15T09:54:05.072Z,97730.24
2023-04-15T09:56:57.463Z,97727.77
2023-04-15T09:59:49.508Z,97721.64
2023-04-15T10:02:43.303Z,97723.42
2023-04-15T10:05:36.039Z,97723.36
2023-04-15T10:08:30.434Z,97726.65
2023-04-15T10:11:23.964Z,97729.06
2023-04-15T10:14:17.519Z,97730.77
2023-04-15T10:17:12.212Z,97728.31
2023-04-15T10:20:06.247Z,97728.42
2023-04-15T10:22:41.781Z,97732.57
2023-04-15T10:25:36.079Z,97740.02
2023-04-15T10:28:29.005Z,97733.77
2023-04-15T10:31:15.962Z,97730.20
2023-04-15T10:34:09.202Z,97734.27
2023-04-15T10:37:04.534Z,97734.67
2023-04-15T10:39:44.552Z,97736.34
2023-04-15T10:42:37.957Z,97734.77
2023-04-15T10:45:28.824Z,97734.98
2023-04-15T10:48:21.054Z,97739.51
2023-04-15T10:51:16.506Z,97740.80
2023-04-15T10:54:14.981Z,97738.59
2023-04-15T10:57:16.403Z,97739.23
2023-04-15T11:00:13.553Z,97738.85
2023-04-15T11:02:58.253Z,97737.16
2023-04-15T11:05:52.068Z,97739.23
2023-04-15T11:08:59.351Z,97733.59
2023-04-15T11:12:11.066Z,97734.53
2023-04-15T11:15:23.552Z,97731.59
2023-04-15T11:18:17.904Z,97729.52
2023-04-15T11:20:56.558Z,97732.04
2023-04-15T11:23:48.599Z,97734.52
2023-04-15T11:26:40.613Z,97734.83
2023-04-15T11:29:33.220Z,97731.71
2023-04-15T11:32:25.652Z,97733.17
2023-04-15T11:35:19.521Z,97737.17
2023-04-15T11:38:14.235Z,97733.39
2023-04-15T11:41:06.535Z,97738.48
2023-04-15T11:43:58.537Z,97742.21
2023-04-15T11:46:50.522Z,97745.15
2023-04-15T11:49:42.471Z,97752.08
2023-04-15T11:52:34.477Z,97748.20
2023-04-15T11:55:12.087Z,97747.96
2023-04-15T11:58:12.527Z,97742.64
2023-04-15T12:01:06.153Z,97742.83
2023-04-15T12:04:01.462Z,97749.73
2023-04-15T12:06:53.969Z,97748.94
2023-04-15T12:09:56.720Z,97751.01
2023-04-15T12:12:34.109Z,97751.55
2023-04-15T12:15:27.241Z,97752.48
2023-04-15T12:18:22.056Z,97749.63
2023-04-15T12:21:12.203Z,97753.30
2023-04-15T12:24:06.552Z,97757.75
2023-04-15T12:26:46.816Z,97757.36
2023-04-15T12:29:40.380Z,97757.66
2023-04-15T12:32:36.382Z,97758.34
2023-04-15T12:35:28.486Z,97758.30
2023-04-15T12:38:20.619Z,97754.88
2023-04-15T12:41:13.070Z,97755.52
2023-04-15T12:43:53.794Z,97750.63
2023-04-15T12:46:46.876Z,97745.13
2023-04-15T12:49:39.452Z,97751.77
2023-04-15T12:52:31.529Z,97751.89
2023-04-15T12:55:19.771Z,97755.71
2023-04-15T12:57:57.040Z,97749.86
2023-04-15T13:00:49.548Z,97748.98
2023-04-15T13:03:41.732Z,97745.49
2023-04-15T13:06:34.411Z,97744.00
2023-04-15T13:09:26.387Z,97741.29
2023-04-15T13:12:18.712Z,97742.91
2023-04-15T13:15:03.193Z,97747.84
2023-04-15T13:17:36.858Z,97749.90
2023-04-15T13:20:29.029Z,97754.33
2023-04-15T13:23:02.059Z,97753.31
2023-04-15T13:25:54.072Z,97749.57
2023-04-15T13:28:46.219Z,97756.19
2023-04-15T13:31:38.196Z,97754.11
2023-04-15T13:34:18.783Z,97754.86
2023-04-15T13:37:11.163Z,97757.54
2023-04-15T13:40:03.518Z,97758.48
2023-04-15T13:42:56.137Z,97758.98
2023-04-15T13:45:49.250Z,97762.38
2023-04-15T13:48:41.432Z,97759.02
2023-04-15T13:51:33.464Z,97760.92
2023-04-15T13:54:14.433Z,97764.13
2023-04-15T13:57:07.021Z,97765.69
2023-04-15T13:59:47.854Z,97768.44
2023-04-15T14:02:41.392Z,97770.98
2023-04-15T14:05:33.705Z,97768.86
2023-04-15T14:08:25.937Z,97769.87
2023-04-15T14:11:18.011Z,97770.55
2023-04-15T14:14:10.068Z,97772.36
2023-04-15T14:17:02.132Z,97774.34
2023-04-15T14:19:37.616Z,97782.78
2023-04-15T14:22:29.604Z,97780.35
2023-04-15T14:25:30.789Z,97783.77
2023-04-15T14:28:25.358Z,97783.95
2023-04-15T14:31:17.466Z,97786.58
2023-04-15T14:34:09.503Z,97788.80
2023-04-15T14:36:52.030Z,97792.06
2023-04-15T14:39:44.018Z,97786.09
2023-04-15T14:42:37.661Z,97790.91
2023-04-15T14:45:30.973Z,97789.70
2023-04-15T14:48:22.999Z,97788.67
2023-04-15T14:51:15.080Z,97795.92
2023-04-15T14:54:07.113Z,97793.86
2023-04-15T14:56:47.783Z,97799.11
2023-04-15T14:59:39.745Z,97802.83
2023-04-15T15:02:39.103Z,97805.50
2023-04-15T15:05:32.264Z,97809.39
2023-04-15T15:08:24.522Z,97813.42
2023-04-15T15:11:17.010Z,97814.79
2023-04-15T15:14:09.213Z,97809.44
2023-04-15T15:17:01.497Z,97814.75
2023-04-15T15:19:44.508Z,97819.08
2023-04-15T15:22:36.456Z,97816.15
2023-04-15T15:25:11.313Z,97818.50
2023-04-15T15:27:48.639Z,97820.15
2023-04-15T15:30:40.653Z,97822.20
2023-04-15T15:33:32.899Z,97826.45
2023-04-15T15:36:25.011Z,97826.40
2023-04-15T15:39:17.189Z,97823.80
2023-04-15T15:42:09.214Z,97827.64
2023-04-15T15:45:01.513Z,97826.16
2023-04-15T15:47:54.088Z,97831.35
2023-04-15T15:50:47.847Z,97834.98
2023-04-15T15:53:28.935Z,97836.87
2023-04-15T15:56:21.315Z,97834.89
2023-04-15T15:59:13.323Z,97838.02
2023-04-15T16:02:05.937Z,97840.13
2023-04-15T16:04:43.492Z,97840.05
2023-04-15T16:07:32.056Z,97843.23
2023-04-15T16:10:24.099Z,97842.77
2023-04-15T16:13:16.171Z,97843.91
2023-04-15T16:16:08.806Z,97842.89
2023-04-15T16:19:01.086Z,97843.50
2023-04-15T16:21:53.144Z,97843.91
2023-04-15T16:24:45.110Z,97844.45
2023-04-15T16:27:54.116Z,97843.91
2023-04-15T16:30:49.382Z,97844.94
2023-04-15T16:33:41.538Z,97852.27
2023-04-15T16:36:35.300Z,97855.22
2023-04-15T16:39:27.314Z,97856.79
2023-04-15T16:42:19.307Z,97860.91
2023-04-15T16:45:12.481Z,97868.20
2023-04-15T16:48:04.774Z,97871.45
2023-04-15T16:50:57.920Z,97876.45
2023-04-15T16:53:50.051Z,97878.41
2023-04-15T16:56:42.065Z,97882.73
2023-04-15T16:59:34.247Z,97888.94
2023-04-15T17:02:11.341Z,97895.30
2023-04-15T17:05:03.581Z,97902.40
2023-04-15T17:07:55.780Z,97903.73
2023-04-15T17:10:47.801Z,97906.28
2023-04-15T17:13:39.907Z,97917.84
2023-04-15T17:16:32.034Z,97927.02
2023-04-15T17:19:24.235Z,97929.85
2023-04-15T17:22:16.996Z,97938.38
2023-04-15T17:25:10.194Z,97952.58
2023-04-15T17:28:03.296Z,97969.55
2023-04-15T17:30:38.021Z,97980.23
2023-04-15T17:34:01.303Z,97987.48
2023-04-15T17:36:42.538Z,97985.42
2023-04-15T17:39:34.635Z,97988.81
2023-04-15T17:42:12.344Z,97993.45
2023-04-15T17:45:04.626Z,98002.70
2023-04-15T17:47:56.675Z,98019.59
2023-04-15T17:50:31.459Z,98022.60
2023-04-15T17:53:23.650Z,98025.08
2023-04-15T17:56:15.797Z,98041.98
2023-04-15T17:59:08.790Z,98056.56
2023-04-15T18:02:01.172Z,98065.98
2023-04-15T18:04:43.845Z,98063.73
2023-04-15T18:07:37.350Z,98050.89
2023-04-15T18:10:29.678Z,98044.02
2023-04-15T18:13:21.883Z,98048.84
2023-04-15T18:16:14.278Z,98072.51
2023-04-15T18:19:06.310Z,98091.64
2023-04-15T18:22:00.019Z,98098.96
2023-04-15T18:24:52.622Z,98102.20
2023-04-15T18:27:45.639Z,98113.66
2023-04-15T18:30:37.674Z,98117.18
2023-04-15T18:33:29.927Z,98117.85
2023-04-15T18:36:21.871Z,98116.78
2023-04-15T18:39:13.929Z,98118.66
2023-04-15T18:42:06.185Z,98118.21
2023-04-15T18:44:58.497Z,98117.26
2023-04-15T18:47:52.259Z,98118.00
2023-04-15T18:50:45.439Z,98123.20
2023-04-15T18:53:38.212Z,98130.70
2023-04-15T18:56:31.287Z,98129.92
2023-04-15T18:59:29.461Z,98125.26
2023-04-15T19:02:22.818Z,98126.41
2023-04-15T19:05:12.616Z,98128.81
2023-04-15T19:07:52.553Z,98127.64
2023-04-15T19:10:45.787Z,98133.35
2023-04-15T19:13:37.787Z,98139.00
2023-04-15T19:16:29.854Z,98145.27
2023-04-15T19:19:22.246Z,98142.95
2023-04-15T19:21:57.605Z,98149.83
2023-04-15T19:24:50.019Z,98148.69
2023-04-15T19:27:42.037Z,98147.62
2023-04-15T19:30:34.003Z,98146.20
2023-04-15T19:33:30.980Z,98145.52
2023-04-15T19:36:23.288Z,98146.21
2023-04-15T19:39:02.046Z,98145.66
2023-04-15T19:41:55.490Z,98147.79
2023-04-15T19:44:47.864Z,98149.48
2023-04-15T19:47:40.260Z,98147.55
2023-04-15T19:50:32.820Z,98148.81
2023-04-15T19:53:25.573Z,98150.23
2023-04-15T19:56:17.848Z,98151.54
2023-04-15T19:59:00.386Z,98151.15
2023-04-15T20:01:32.693Z,98153.02
2023-04-15T20:04:24.883Z,98152.71
2023-04-15T20:07:17.132Z,98153.98
2023-04-15T20:09:52.452Z,98157.86
2023-04-15T20:12:49.934Z,98165.75
2023-04-15T20:15:34.809Z,98170.45
2023-04-15T20:18:26.896Z,98169.36
2023-04-15T20:21:18.949Z,98168.27
2023-04-15T20:24:11.045Z,98171.27
2023-04-15T20:27:03.888Z,98170.63
2023-04-15T20:29:55.917Z,98170.87
2023-04-15T20:32:47.892Z,98172.04
2023-04-15T20:35:39.964Z,98169.65
2023-04-15T20:38:32.054Z,98171.06
2023-04-15T20:41:24.230Z,98172.52
2023-04-15T20:44:05.309Z,98173.79
2023-04-15T20:46:57.321Z,98178.77
2023-04-15T20:49:49.375Z,98184.64
2023-04-15T20:52:41.513Z,98189.44
2023-04-15T20:55:33.531Z,98187.75
2023-04-15T20:58:08.119Z,98184.90
2023-04-15T21:01:01.917Z,98183.41
2023-04-15T21:03:54.089Z,98186.48
2023-04-15T21:06:46.109Z,98189.89
2023-04-15T21:09:41.197Z,98197.23
2023-04-15T21:12:22.186Z,98198.01
2023-04-15T21:15:14.811Z,98197.02
2023-04-15T21:18:06.862Z,98195.88
2023-04-15T21:21:02.309Z,98201.52
2023-04-15T21:23:54.290Z,98207.70
2023-04-15T21:26:46.371Z,98212.91
2023-04-15T21:29:23.222Z,98217.04
2023-04-15T21:32:15.782Z,98215.95
2023-04-15T21:35:09.568Z,98223.64
2023-04-15T21:37:52.916Z,98226.83
2023-04-15T21:40:40.269Z,98229.23
2023-04-15T21:43:17.242Z,98234.31
2023-04-15T21:46:22.088Z,98238.70
2023-04-15T21:49:16.006Z,98238.46
2023-04-15T21:52:08.196Z,98243.32
2023-04-15T21:54:51.296Z,98244.39
2023-04-15T21:57:43.288Z,98249.36
2023-04-15T22:00:35.388Z,98252.09
2023-04-15T22:03:29.766Z,98255.41
2023-04-15T22:06:22.142Z,98258.77
2023-04-15T22:09:14.509Z,98264.58
2023-04-15T22:12:07.765Z,98270.84
2023-04-15T22:14:59.701Z,98276.09
2023-04-15T22:17:51.830Z,98275.96
2023-04-15T22:20:43.787Z,98275.60
2023-04-15T22:23:35.980Z,98277.82
2023-04-15T22:26:27.915Z,98286.25
2023-04-15T22:29:19.745Z,98288.39
2023-04-15T22:32:11.749Z,98292.73
2023-04-15T22:35:06.283Z,98293.05
2023-04-15T22:37:58.238Z,98298.71
2023-04-15T22:40:51.718Z,98300.93
2023-04-15T22:43:43.648Z,98308.90
2023-04-15T22:46:35.821Z,98304.36
2023-04-15T22:49:27.859Z,98311.63
2023-04-15T22:52:30.181Z,98317.66
2023-04-15T22:55:23.277Z,98322.95
2023-04-15T22:58:15.265Z,98325.43
2023-04-15T23:01:10.478Z,98329.30
2023-04-15T23:04:08.475Z,98329.95
2023-04-15T23:07:14.378Z,98336.15
2023-04-15T23:10:08.022Z,98336.94
2023-04-15T23:13:00.082Z,98340.12
2023-04-15T23:15:52.109Z,98342.48
2023-04-15T23:18:32.997Z,98344.77
2023-04-15T23:21:26.144Z,98340.70
2023-04-15T23:24:18.350Z,98340.59
2023-04-15T23:26:57.155Z,98341.48
2023-04-15T23:29:31.824Z,98344.84
2023-04-15T23:32:23.822Z,98347.42
2023-04-15T23:35:05.141Z,98350.83
2023-04-15T23:37:57.201Z,98355.34
2023-04-15T23:40:49.151Z,98354.43
2023-04-15T23:43:41.136Z,98360.41
2023-04-15T23:46:33.109Z,98364.98
2023-04-15T23:49:25.533Z,98361.14
2023-04-15T23:52:17.573Z,98361.91
2023-04-15T23:55:11.134Z,98365.54
2023-04-15T23:58:03.085Z,98367.04
